Time;durP1;ratioP1;P1;durP2;ratioP2;P2;SDS_P1;SDS_P2;PMS_P1;PMS_P2;Temp;Humidity;BMP_temperature;BMP_pressure;BME280_temperature;BME280_humidity;BME280_pressure;Samples;Min_cycle;Max_cycle;Signal;HPM_P1;HPM_P2
2023/01/16 00:01:29;;;;;;;3.47;0.80;;;;;;;5.29;96.40;99001.81;5204724;28;20092;-76
2023/01/16 00:03:59;;;;;;;1.73;0.52;;;;;;;5.22;96.77;98996.94;5201204;28;20025;-76
2023/01/16 00:06:30;;;;;;;2.60;0.55;;;;;;;5.14;97.45;99002.44;5205413;28;20127;-76
2023/01/16 00:09:00;;;;;;;4.47;0.68;;;;;;;5.18;97.37;98998.81;5207625;28;20033;-76
2023/01/16 00:11:30;;;;;;;3.20;0.88;;;;;;;5.28;97.75;99009.66;5209631;28;20032;-75
2023/01/16 00:14:01;;;;;;;4.90;0.93;;;;;;;5.38;96.56;99002.31;5208373;28;20481;-76
2023/01/16 00:16:31;;;;;;;4.15;0.70;;;;;;;5.29;96.16;99001.81;5207704;28;20029;-75
2023/01/16 00:19:01;;;;;;;4.72;0.85;;;;;;;5.32;96.83;99006.88;5206731;28;20021;-76
2023/01/16 00:21:32;;;;;;;2.90;0.70;;;;;;;5.36;95.82;99005.84;5211477;28;20147;-76
2023/01/16 00:24:03;;;;;;;2.13;0.60;;;;;;;5.29;96.20;99007.00;5213224;28;20025;-76
2023/01/16 00:26:33;;;;;;;2.08;0.70;;;;;;;5.22;96.43;99010.75;5205357;28;20068;-77
2023/01/16 00:29:04;;;;;;;2.78;0.90;;;;;;;5.29;96.26;99001.00;5199351;28;20347;-77
2023/01/16 00:31:34;;;;;;;2.33;0.70;;;;;;;5.34;95.14;98999.88;5184101;28;20018;-76
2023/01/16 00:34:04;;;;;;;5.07;0.80;;;;;;;5.33;96.15;99005.16;5200405;28;20320;-76
2023/01/16 00:36:35;;;;;;;5.00;0.80;;;;;;;5.33;95.69;98998.22;5199814;28;20033;-76
2023/01/16 00:39:05;;;;;;;4.82;0.75;;;;;;;5.24;95.43;98998.59;5204914;28;20025;-77
2023/01/16 00:41:36;;;;;;;2.92;0.70;;;;;;;5.18;95.87;98998.81;5201245;28;20033;-76
2023/01/16 00:44:06;;;;;;;2.92;0.70;;;;;;;5.32;95.46;98996.53;5183147;28;20041;-76
2023/01/16 00:46:36;;;;;;;3.10;0.80;;;;;;;5.31;94.03;98994.84;5185923;28;20022;-75
2023/01/16 00:49:06;;;;;;;2.80;0.60;;;;;;;5.16;95.60;99000.63;5205773;28;20025;-76
2023/01/16 00:51:37;;;;;;;3.35;0.60;;;;;;;5.19;95.87;99003.06;5205381;28;20082;-76
2023/01/16 00:54:07;;;;;;;3.63;0.70;;;;;;;5.11;96.75;98992.19;5206383;28;20471;-76
2023/01/16 00:56:37;;;;;;;1.38;0.55;;;;;;;5.12;96.77;98993.06;5202365;28;20029;-76
2023/01/16 00:59:09;;;;;;;3.40;0.80;;;;;;;5.28;96.90;98984.59;5202145;28;20025;-76
2023/01/16 01:01:40;;;;;;;4.80;0.75;;;;;;;5.31;96.94;98989.66;5201920;28;20049;-75
2023/01/16 01:04:12;;;;;;;2.72;0.60;;;;;;;5.35;96.24;98980.03;5203673;28;20028;-76
2023/01/16 01:06:42;;;;;;;3.00;0.70;;;;;;;5.35;96.68;98969.66;5204785;28;20021;-76
2023/01/16 01:09:12;;;;;;;5.25;0.60;;;;;;;5.39;96.45;98972.09;5205301;28;20025;-76
2023/01/16 01:11:43;;;;;;;5.60;0.90;;;;;;;5.41;95.93;98965.91;5200223;28;20037;-76
2023/01/16 01:14:13;;;;;;;5.35;0.77;;;;;;;5.32;96.94;98974.97;5204225;28;20479;-77
2023/01/16 01:16:43;;;;;;;3.28;0.70;;;;;;;5.41;96.94;98965.09;5206937;28;20029;-76
2023/01/16 01:19:14;;;;;;;7.68;0.70;;;;;;;5.41;96.32;98965.09;5209412;28;20022;-76
2023/01/16 01:21:44;;;;;;;3.78;0.75;;;;;;;5.44;95.70;98949.41;5212046;28;20027;-76
2023/01/16 01:24:15;;;;;;;5.00;0.63;;;;;;;5.47;95.39;98954.47;5205910;28;20067;-76
2023/01/16 01:26:46;;;;;;;5.05;1.00;;;;;;;5.38;95.66;98947.09;5202102;28;20067;-76
2023/01/16 01:29:16;;;;;;;3.30;0.80;;;;;;;5.42;95.47;98943.47;5209724;28;20522;-76
2023/01/16 01:31:46;;;;;;;4.90;0.88;;;;;;;5.37;95.57;98947.13;5208889;28;20029;-77
2023/01/16 01:34:17;;;;;;;3.38;0.70;;;;;;;5.46;96.13;98947.59;5203850;28;20648;-76
2023/01/16 01:36:47;;;;;;;5.57;1.00;;;;;;;5.47;95.03;98944.09;5208589;28;20033;-76
2023/01/16 01:39:17;;;;;;;3.83;0.73;;;;;;;5.58;94.99;98947.94;5208781;28;20013;-76
2023/01/16 01:41:48;;;;;;;3.80;0.80;;;;;;;5.54;94.89;98936.03;5207800;28;20171;-76
2023/01/16 01:44:46;;;;;;;4.38;0.90;;;;;;;5.55;95.29;98939.47;5187529;28;20029;-76
2023/01/16 01:47:20;;;;;;;4.78;1.05;;;;;;;5.66;94.81;98926.88;5211225;28;20108;-76
2023/01/16 01:49:51;;;;;;;2.88;0.70;;;;;;;5.67;94.80;98921.66;5203340;28;21462;-77
2023/01/16 01:52:23;;;;;;;5.38;0.70;;;;;;;5.70;94.49;98916.34;5190585;28;20407;-76
2023/01/16 01:54:58;;;;;;;3.75;1.02;;;;;;;5.55;94.91;98916.16;5201901;28;20025;-76
2023/01/16 01:57:35;;;;;;;5.90;1.10;;;;;;;5.73;95.12;98911.00;5189195;28;20116;-76
2023/01/16 02:00:21;;;;;;;2.25;0.70;;;;;;;5.70;95.76;98915.47;5189909;28;20048;-76
2023/01/16 02:03:09;;;;;;;3.10;0.70;;;;;;;5.75;95.08;98905.78;5200676;28;20104;-76
2023/01/16 02:05:44;;;;;;;4.47;0.50;;;;;;;5.74;94.63;98896.31;5202141;28;20123;-76
2023/01/16 02:08:19;;;;;;;6.20;1.25;;;;;;;5.79;94.55;98892.66;5207265;28;20075;-76
2023/01/16 02:10:55;;;;;;;4.93;0.80;;;;;;;5.83;94.10;98877.81;5207806;28;20033;-76
2023/01/16 02:13:26;;;;;;;4.75;0.90;;;;;;;5.86;93.11;98880.25;5207178;28;20503;-76
2023/01/16 02:21:34;;;;;;;2.53;0.88;;;;;;;5.95;91.63;98874.69;5211915;28;20052;-76
2023/01/16 02:24:23;;;;;;;3.28;0.80;;;;;;;5.87;92.18;98871.56;5215506;28;20025;-76
2023/01/16 02:27:09;;;;;;;3.80;0.60;;;;;;;5.89;91.98;98867.19;5208398;28;20037;-76
2023/01/16 02:30:18;;;;;;;6.32;1.25;;;;;;;5.89;92.48;98855.06;5213367;28;20037;-76
2023/01/16 02:33:05;;;;;;;9.05;1.92;;;;;;;5.82;91.92;98856.25;5207871;28;20028;-76
2023/01/16 02:36:18;;;;;;;3.03;0.70;;;;;;;5.79;92.45;98850.34;5212456;28;20029;-75
2023/01/16 02:39:10;;;;;;;3.30;0.50;;;;;;;5.76;92.61;98842.69;5185207;28;20530;-76
2023/01/16 02:41:50;;;;;;;3.97;0.95;;;;;;;5.75;93.08;98835.81;5213670;28;20028;-76
2023/01/16 02:48:01;;;;;;;2.97;0.57;;;;;;;5.62;95.45;98840.69;5220367;28;20049;-71
2023/01/16 02:50:51;;;;;;;2.70;0.85;;;;;;;5.45;96.73;98826.78;5222383;28;20040;-70
2023/01/16 02:53:28;;;;;;;2.83;0.70;;;;;;;5.37;97.43;98828.00;5210422;28;20025;-71
2023/01/16 02:56:08;;;;;;;3.53;0.50;;;;;;;5.33;98.19;98824.69;5235291;28;20425;-71
2023/01/16 02:58:42;;;;;;;3.10;0.70;;;;;;;5.22;98.42;98813.97;5230615;28;20458;-71
2023/01/16 03:01:13;;;;;;;3.95;0.80;;;;;;;5.09;98.79;98805.03;5227935;28;20487;-71
2023/01/16 03:03:53;;;;;;;4.55;0.82;;;;;;;5.04;99.29;98808.72;5226328;28;20234;-71
2023/01/16 03:06:48;;;;;;;4.85;0.80;;;;;;;4.92;99.89;98804.91;5226274;28;20031;-71
2023/01/16 03:09:30;;;;;;;3.28;0.65;;;;;;;4.91;100.00;98798.03;5235714;28;20024;-71
2023/01/16 03:12:32;;;;;;;1.60;0.60;;;;;;;4.96;100.00;98790.91;5230866;28;20333;-71
2023/01/16 03:15:20;;;;;;;3.42;0.52;;;;;;;4.93;99.65;98782.44;5222222;28;20029;-71
2023/01/16 03:18:03;;;;;;;3.03;0.52;;;;;;;5.02;98.98;98784.66;5230242;28;20040;-71
2023/01/16 03:21:03;;;;;;;4.72;0.68;;;;;;;5.01;97.69;98776.03;5232507;28;20094;-71
2023/01/16 03:23:50;;;;;;;3.03;0.75;;;;;;;5.00;97.43;98769.16;5228076;28;20029;-71
2023/01/16 03:27:03;;;;;;;3.05;0.60;;;;;;;5.03;97.13;98774.25;5227327;28;20119;-71
2023/01/16 03:29:53;;;;;;;3.70;0.57;;;;;;;4.91;98.09;98772.16;5172410;28;20037;-71
2023/01/16 03:32:32;;;;;;;3.80;0.60;;;;;;;4.84;98.10;98764.72;5222000;28;20108;-71
2023/01/16 03:35:07;;;;;;;2.70;0.40;;;;;;;4.79;98.80;98762.31;5227244;28;20107;-71
2023/01/16 03:37:45;;;;;;;4.63;0.65;;;;;;;4.60;99.82;98763.16;5232812;28;20497;-71
2023/01/16 03:40:22;;;;;;;4.18;0.70;;;;;;;4.61;100.00;98760.47;5229788;28;20029;-71
2023/01/16 03:43:03;;;;;;;3.28;0.60;;;;;;;4.51;99.95;98758.34;5227544;28;20044;-71
2023/01/16 03:45:38;;;;;;;4.00;0.57;;;;;;;4.36;100.00;98751.19;5210104;28;20111;-71
2023/01/16 03:48:19;;;;;;;3.67;0.73;;;;;;;4.36;100.00;98748.59;5213511;28;20530;-71
2023/01/16 03:50:56;;;;;;;3.40;0.60;;;;;;;4.39;100.00;98744.16;5231208;28;20033;-71
2023/01/16 03:53:38;;;;;;;3.67;0.60;;;;;;;4.54;100.00;98730.63;5228551;28;20037;-71
2023/01/16 03:56:23;;;;;;;2.88;0.65;;;;;;;4.60;100.00;98722.59;5229825;28;20043;-71
2023/01/16 03:58:54;;;;;;;2.93;0.67;;;;;;;4.54;100.00;98716.81;5224152;28;20024;-71
2023/01/16 04:11:48;;;;;;;4.57;0.60;;;;;;;4.82;100.00;98715.59;5216264;28;20052;-71
2023/01/16 04:14:22;;;;;;;2.58;0.55;;;;;;;4.76;100.00;98709.84;5224496;28;20082;-71
2023/01/16 04:16:53;;;;;;;2.08;0.65;;;;;;;4.74;100.00;98699.59;5232266;28;20126;-71
2023/01/16 04:19:26;;;;;;;4.03;0.68;;;;;;;4.78;100.00;98700.31;5228810;28;20719;-71
2023/01/16 04:21:56;;;;;;;2.38;0.68;;;;;;;4.75;100.00;98701.25;5229916;28;20158;-71
2023/01/16 04:24:26;;;;;;;1.58;0.50;;;;;;;4.71;100.00;98701.44;5229536;28;20108;-71
2023/01/16 04:26:57;;;;;;;4.43;0.73;;;;;;;4.67;100.00;98692.97;5233179;28;20024;-71
2023/01/16 04:29:27;;;;;;;2.88;0.60;;;;;;;4.62;100.00;98681.16;5231106;28;20053;-71
2023/01/16 04:31:57;;;;;;;4.15;0.95;;;;;;;4.52;100.00;98682.44;5225016;28;20025;-71
2023/01/16 04:34:28;;;;;;;3.95;0.70;;;;;;;4.52;100.00;98680.69;5227883;28;20408;-70
2023/01/16 04:36:58;;;;;;;4.13;0.80;;;;;;;4.48;100.00;98681.72;5231402;28;20107;-70
2023/01/16 04:39:28;;;;;;;2.88;0.70;;;;;;;4.49;100.00;98662.69;5226180;28;20471;-71
2023/01/16 04:41:58;;;;;;;3.50;0.57;;;;;;;4.47;100.00;98661.94;5202563;28;20017;-71
2023/01/16 04:44:29;;;;;;;4.38;0.85;;;;;;;4.49;100.00;98661.88;5223820;28;20186;-71
2023/01/16 04:46:59;;;;;;;3.83;0.80;;;;;;;4.39;100.00;98651.09;5226537;28;20020;-71
2023/01/16 04:49:29;;;;;;;5.75;0.70;;;;;;;4.38;100.00;98646.81;5208572;28;20518;-71
2023/01/16 04:52:00;;;;;;;2.13;0.60;;;;;;;4.29;100.00;98646.34;5233182;28;20051;-71
2023/01/16 04:54:30;;;;;;;2.03;0.60;;;;;;;4.34;100.00;98649.59;5231258;28;20075;-71
2023/01/16 04:57:01;;;;;;;1.80;0.47;;;;;;;4.20;100.00;98641.56;5227264;28;20091;-70
2023/01/16 04:59:31;;;;;;;4.05;0.85;;;;;;;4.11;100.00;98637.59;5229454;28;20457;-71
2023/01/16 05:02:02;;;;;;;3.85;0.73;;;;;;;4.02;100.00;98629.38;5222899;28;20021;-71
2023/01/16 05:04:32;;;;;;;5.00;0.70;;;;;;;3.93;100.00;98630.59;5223238;28;20406;-70
2023/01/16 05:07:02;;;;;;;2.33;0.63;;;;;;;3.81;100.00;98633.66;5231505;28;20163;-71
2023/01/16 05:09:32;;;;;;;3.67;0.63;;;;;;;3.86;100.00;98628.31;5232058;28;20415;-71
2023/01/16 05:12:03;;;;;;;5.10;0.68;;;;;;;3.89;100.00;98633.34;5230926;28;20044;-71
2023/01/16 05:14:33;;;;;;;3.72;0.70;;;;;;;3.92;100.00;98623.75;5227922;28;20032;-71
2023/01/16 05:17:04;;;;;;;3.78;0.80;;;;;;;3.93;100.00;98622.84;5231117;28;20029;-70
2023/01/16 05:19:34;;;;;;;4.05;0.60;;;;;;;4.03;100.00;98616.41;5227258;28;20025;-71
2023/01/16 05:22:04;;;;;;;6.00;1.13;;;;;;;4.28;100.00;98609.31;5231874;28;20024;-70
2023/01/16 05:24:34;;;;;;;5.43;0.63;;;;;;;4.36;100.00;98602.09;5231609;28;20055;-70
2023/01/16 05:27:05;;;;;;;3.67;0.80;;;;;;;4.44;100.00;98596.59;5227211;28;20033;-71
2023/01/16 05:29:35;;;;;;;3.70;0.85;;;;;;;4.47;100.00;98593.88;5222435;28;20129;-71
2023/01/16 05:32:06;;;;;;;1.75;0.50;;;;;;;4.46;100.00;98587.84;5221773;28;20477;-71
2023/01/16 05:34:36;;;;;;;5.95;0.60;;;;;;;4.44;100.00;98586.25;5209185;28;20029;-71
2023/01/16 05:37:06;;;;;;;7.32;1.00;;;;;;;4.44;100.00;98579.31;5227979;28;20039;-71
2023/01/16 05:39:36;;;;;;;2.85;0.70;;;;;;;4.38;100.00;98571.00;5219518;28;20029;-71
2023/01/16 05:42:20;;;;;;;0.90;0.47;;;;;;;4.35;100.00;98573.72;5231961;28;20029;-71
2023/01/16 05:44:52;;;;;;;1.67;0.52;;;;;;;4.11;100.00;98570.41;5220620;28;20028;-70
2023/01/16 05:47:22;;;;;;;3.05;0.90;;;;;;;3.99;100.00;98572.66;5219471;28;20029;-71
2023/01/16 05:49:52;;;;;;;3.83;0.88;;;;;;;3.99;100.00;98573.50;5215070;28;20029;-71
2023/01/16 05:52:22;;;;;;;6.53;0.77;;;;;;;3.98;100.00;98558.91;5229540;28;20434;-71
2023/01/16 05:54:53;;;;;;;5.15;0.80;;;;;;;4.09;100.00;98567.06;5232539;28;20042;-70
2023/01/16 05:57:24;;;;;;;3.88;0.77;;;;;;;4.16;100.00;98573.63;5221732;28;20029;-71
2023/01/16 05:59:54;;;;;;;3.15;0.85;;;;;;;4.21;100.00;98565.69;5210957;28;20453;-71
2023/01/16 06:02:24;;;;;;;6.45;0.95;;;;;;;4.25;100.00;98562.94;5223809;28;20271;-71
2023/01/16 06:04:55;;;;;;;3.00;0.77;;;;;;;4.33;100.00;98560.84;5203654;28;20024;-72
2023/01/16 06:07:26;;;;;;;3.75;0.63;;;;;;;4.41;100.00;98563.94;5229707;28;20386;-70
2023/01/16 06:09:56;;;;;;;3.33;0.70;;;;;;;4.49;100.00;98558.44;5217736;28;20629;-71
2023/01/16 06:12:26;;;;;;;3.70;0.82;;;;;;;4.50;100.00;98550.59;5227274;28;20143;-71
2023/01/16 06:14:57;;;;;;;3.00;0.60;;;;;;;4.54;100.00;98544.41;5220733;28;20094;-71
2023/01/16 06:17:27;;;;;;;4.97;0.80;;;;;;;4.60;100.00;98535.56;5207657;28;20030;-71
2023/01/16 06:19:59;;;;;;;4.45;0.95;;;;;;;4.48;100.00;98536.91;5224253;28;20025;-70
2023/01/16 06:22:29;;;;;;;3.13;0.77;;;;;;;4.54;100.00;98534.06;5227244;28;20025;-71
2023/01/16 06:24:59;;;;;;;5.25;0.77;;;;;;;4.57;100.00;98527.91;5228177;28;20031;-71
2023/01/16 06:27:31;;;;;;;2.30;0.63;;;;;;;4.48;100.00;98518.81;5227287;28;20036;-71
2023/01/16 06:30:02;;;;;;;4.78;1.10;;;;;;;4.56;100.00;98521.91;5203820;28;20040;-71
2023/01/16 06:32:33;;;;;;;4.65;0.85;;;;;;;4.47;100.00;98516.31;5190957;28;20040;-71
2023/01/16 06:35:04;;;;;;;4.10;1.00;;;;;;;4.07;100.00;98506.84;5217428;28;20025;-71
2023/01/16 06:37:34;;;;;;;3.60;0.77;;;;;;;3.90;100.00;98504.13;5220218;28;20116;-71
2023/01/16 06:40:05;;;;;;;5.25;0.82;;;;;;;3.92;100.00;98499.75;5219950;28;20487;-71
2023/01/16 06:42:35;;;;;;;2.97;0.82;;;;;;;3.95;100.00;98494.44;5225979;28;20039;-71
2023/01/16 06:45:06;;;;;;;5.25;1.02;;;;;;;3.81;100.00;98488.19;5219169;28;20241;-71
2023/01/16 06:47:36;;;;;;;3.33;0.70;;;;;;;3.81;100.00;98483.84;5219943;28;20025;-72
2023/01/16 06:50:08;;;;;;;3.40;0.68;;;;;;;3.78;100.00;98483.16;5223736;28;20456;-71
2023/01/16 06:52:39;;;;;;;2.17;0.50;;;;;;;3.68;100.00;98477.53;5226996;28;20029;-72
2023/01/16 06:55:09;;;;;;;3.72;0.60;;;;;;;3.67;100.00;98477.59;5217246;28;20248;-72
2023/01/16 06:57:40;;;;;;;3.17;0.70;;;;;;;3.51;100.00;98467.97;5226260;28;20051;-71
2023/01/16 07:00:11;;;;;;;4.50;0.68;;;;;;;3.33;100.00;98468.72;5228257;28;20081;-71
2023/01/16 07:02:41;;;;;;;2.60;0.63;;;;;;;3.28;100.00;98465.47;5226211;28;20028;-72
2023/01/16 07:05:12;;;;;;;5.70;0.85;;;;;;;3.22;100.00;98465.72;5226663;28;20023;-71
2023/01/16 07:07:43;;;;;;;5.00;0.82;;;;;;;3.22;100.00;98461.38;5230527;28;20033;-71
2023/01/16 07:10:13;;;;;;;5.70;1.00;;;;;;;3.15;100.00;98453.94;5225051;28;20211;-71
2023/01/16 07:12:43;;;;;;;3.83;1.20;;;;;;;3.14;100.00;98454.84;5223243;28;20040;-71
2023/01/16 07:23:47;;;;;;;3.72;0.82;;;;;;;3.92;100.00;98437.75;5235648;28;20096;-71
2023/01/16 07:26:19;;;;;;;3.17;1.00;;;;;;;3.84;100.00;98429.50;5231993;28;20053;-71
2023/01/16 07:28:51;;;;;;;3.50;0.70;;;;;;;3.90;100.00;98434.41;5206912;28;20551;-71
2023/01/16 07:31:22;;;;;;;3.90;0.80;;;;;;;3.89;100.00;98424.13;5219045;28;20451;-71
2023/01/16 07:33:53;;;;;;;1.63;0.70;;;;;;;3.84;100.00;98420.91;5197628;28;20056;-71
2023/01/16 07:36:23;;;;;;;1.38;0.52;;;;;;;3.77;100.00;98422.91;5228276;28;20025;-71
2023/01/16 07:38:53;;;;;;;1.95;0.80;;;;;;;3.79;100.00;98423.69;5231587;28;20086;-71
2023/01/16 07:41:23;;;;;;;3.00;0.77;;;;;;;3.72;100.00;98427.44;5235283;28;20119;-71
2023/01/16 07:43:55;;;;;;;3.88;0.93;;;;;;;3.76;100.00;98418.66;5209084;28;20103;-71
2023/01/16 07:46:25;;;;;;;3.83;0.90;;;;;;;3.77;100.00;98430.66;5229395;28;20063;-71
2023/01/16 07:48:56;;;;;;;4.25;0.95;;;;;;;3.89;100.00;98422.38;5232049;28;20438;-71
2023/01/16 07:51:26;;;;;;;2.72;0.73;;;;;;;3.88;100.00;98412.09;5236792;28;20035;-70
2023/01/16 07:53:57;;;;;;;2.88;0.88;;;;;;;3.88;100.00;98402.63;5230073;28;20296;-71
2023/01/16 07:56:27;;;;;;;3.60;0.90;;;;;;;3.89;100.00;98403.44;5228438;28;20094;-71
2023/01/16 07:58:57;;;;;;;5.68;0.70;;;;;;;3.82;100.00;98387.38;5232595;28;20170;-71
2023/01/16 08:01:28;;;;;;;5.07;1.08;;;;;;;3.80;100.00;98389.19;5230669;28;20441;-71
2023/01/16 08:03:58;;;;;;;3.83;1.00;;;;;;;3.84;100.00;98387.31;5227506;28;20028;-71
2023/01/16 08:06:28;;;;;;;2.60;0.80;;;;;;;3.91;100.00;98379.25;5226504;28;20033;-71
2023/01/16 08:08:59;;;;;;;1.98;0.90;;;;;;;4.21;100.00;98385.63;5233172;28;20097;-70
2023/01/16 08:11:35;;;;;;;3.40;0.90;;;;;;;4.33;100.00;98379.88;5223290;28;20129;-72
2023/01/16 08:14:07;;;;;;;4.05;1.10;;;;;;;4.68;100.00;98362.75;5226135;28;20032;-72
2023/01/16 08:16:37;;;;;;;5.10;1.13;;;;;;;5.37;100.00;98351.53;5232957;28;20494;-71
2023/01/16 08:19:08;;;;;;;2.67;0.82;;;;;;;6.23;97.78;98346.13;5230631;28;20028;-71
2023/01/16 08:21:38;;;;;;;3.67;1.00;;;;;;;6.80;93.60;98340.31;5228583;28;20419;-71
2023/01/16 08:24:09;;;;;;;3.72;0.85;;;;;;;7.09;90.29;98339.50;5227701;28;20029;-71
2023/01/16 08:26:39;;;;;;;4.47;0.70;;;;;;;7.48;88.29;98335.41;5207040;28;20033;-71
2023/01/16 08:29:10;;;;;;;4.38;0.90;;;;;;;7.70;87.66;98334.06;5222324;28;20093;-71
2023/01/16 08:31:40;;;;;;;4.13;1.00;;;;;;;7.68;86.92;98330.72;5232680;28;20031;-71
2023/01/16 08:34:11;;;;;;;2.70;0.70;;;;;;;7.61;86.61;98334.63;5232794;28;20050;-70
2023/01/16 08:36:41;;;;;;;4.07;0.90;;;;;;;7.70;86.41;98318.47;5229708;28;20545;-71
2023/01/16 08:39:12;;;;;;;4.43;0.82;;;;;;;7.66;85.98;98322.19;5227198;28;20040;-71
2023/01/16 08:53:05;;;;;;;3.67;0.85;;;;;;;6.99;87.73;98300.25;5229719;28;20043;-77
2023/01/16 08:55:35;;;;;;;3.63;1.00;;;;;;;6.46;90.26;98311.97;5231131;28;20029;-76
2023/01/16 08:58:06;;;;;;;4.43;1.08;;;;;;;6.28;91.29;98302.63;5210708;28;20103;-76
2023/01/16 09:00:36;;;;;;;4.32;0.85;;;;;;;6.26;93.42;98299.28;5229717;28;20111;-77
2023/01/16 09:03:07;;;;;;;5.78;1.00;;;;;;;6.12;94.76;98304.38;5231760;28;20540;-77
2023/01/16 09:05:37;;;;;;;2.75;0.95;;;;;;;6.15;93.98;98294.69;5227602;28;20090;-77
2023/01/16 09:08:07;;;;;;;2.83;0.80;;;;;;;6.17;94.36;98286.78;5230645;28;20474;-76
2023/01/16 09:10:38;;;;;;;2.60;0.80;;;;;;;5.98;94.65;98280.94;5231689;28;20047;-76
2023/01/16 09:16:02;;;;;;;4.68;0.80;;;;;;;6.10;95.88;98269.91;5225318;28;20021;-77
2023/01/16 09:18:32;;;;;;;4.28;1.10;;;;;;;6.09;96.08;98263.88;5231729;28;20048;-76
2023/01/16 09:21:02;;;;;;;4.18;1.00;;;;;;;5.94;95.48;98282.03;5228459;28;20063;-77
2023/01/16 09:23:33;;;;;;;3.03;0.90;;;;;;;5.94;95.55;98271.66;5205690;28;20391;-76
2023/01/16 09:26:03;;;;;;;2.00;0.60;;;;;;;5.91;95.05;98266.66;5224769;28;20756;-77
2023/01/16 09:28:34;;;;;;;4.20;0.98;;;;;;;5.93;96.25;98275.19;5231350;28;20028;-76
2023/01/16 09:31:04;;;;;;;4.88;0.80;;;;;;;5.76;95.71;98270.03;5230549;28;20116;-76
2023/01/16 09:33:36;;;;;;;3.60;0.88;;;;;;;5.73;96.15;98262.41;5225877;28;20444;-76
2023/01/16 09:36:07;;;;;;;4.38;0.68;;;;;;;5.74;96.03;98256.31;5232133;28;20116;-76
2023/01/16 09:38:37;;;;;;;6.05;0.70;;;;;;;5.49;95.68;98249.00;5231265;28;20103;-76
2023/01/16 09:43:35;;;;;;;3.38;0.85;;;;;;;5.53;97.24;98240.16;5229751;28;20028;-73
2023/01/16 09:44:08;;;;;;;1.83;0.60;;;;;;;5.40;97.23;98239.09;5227071;28;20383;-76
2023/01/16 09:46:45;;;;;;;1.55;0.50;;;;;;;5.38;97.49;98240.13;5231936;28;20070;-75
2023/01/16 09:49:25;;;;;;;1.98;0.50;;;;;;;5.32;97.79;98229.25;5229710;28;20029;-76
2023/01/16 10:00:38;;;;;;;2.25;0.70;;;;;;;5.39;97.02;98198.59;5226437;28;20105;-76
2023/01/16 10:03:08;;;;;;;3.90;0.95;;;;;;;5.46;97.36;98187.00;5229014;28;20112;-76
2023/01/16 10:06:02;;;;;;;1.52;0.50;;;;;;;5.43;95.14;98161.25;5223589;28;20412;-75
2023/01/16 10:08:53;;;;;;;2.58;1.05;;;;;;;5.57;94.92;98165.72;5229625;28;20487;-76
2023/01/16 10:11:45;;;;;;;1.95;0.70;;;;;;;5.63;93.62;98162.78;5225680;28;20502;-76
2023/01/16 10:14:34;;;;;;;1.60;0.45;;;;;;;5.66;93.64;98147.91;5224185;28;20020;-75
2023/01/16 10:17:25;;;;;;;3.97;0.80;;;;;;;5.76;92.69;98135.28;5227596;28;20017;-76
2023/01/16 10:20:02;;;;;;;2.85;0.80;;;;;;;5.85;93.28;98132.22;5226602;28;20025;-76
2023/01/16 10:22:49;;;;;;;3.22;0.88;;;;;;;5.86;92.76;98123.50;5225296;28;20029;-76
2023/01/16 10:25:38;;;;;;;2.30;0.80;;;;;;;5.99;94.08;98112.41;5222775;28;20402;-76
2023/01/16 10:28:30;;;;;;;3.65;0.90;;;;;;;6.13;92.70;98098.63;5224294;28;20397;-75
2023/01/16 10:31:23;;;;;;;2.33;0.80;;;;;;;6.42;94.63;98084.81;5228440;28;20039;-76
2023/01/16 10:34:01;;;;;;;3.03;0.75;;;;;;;6.60;93.60;98076.78;5213171;28;20542;-76
2023/01/16 10:36:38;;;;;;;3.25;0.68;;;;;;;6.57;91.74;98079.56;5234166;28;20040;-77
2023/01/16 10:39:12;;;;;;;3.28;0.90;;;;;;;6.51;91.89;98066.97;5232053;28;20516;-76
2023/01/16 10:51:01;;;;;;;8.82;0.88;;;;;;;6.38;92.17;98040.06;5232091;28;20036;-76
2023/01/16 10:53:32;;;;;;;2.88;0.65;;;;;;;6.30;90.53;98018.13;5233926;28;20537;-76
2023/01/16 10:56:03;;;;;;;2.65;0.60;;;;;;;6.36;90.77;98002.19;5229814;28;20035;-76
2023/01/16 10:58:38;;;;;;;3.53;0.63;;;;;;;6.30;90.71;97994.78;5215508;28;20463;-76
2023/01/16 11:01:16;;;;;;;4.28;0.60;;;;;;;6.29;91.76;97980.16;5232686;28;20279;-76
2023/01/16 11:03:52;;;;;;;1.38;0.43;;;;;;;6.21;91.69;97975.41;5230460;28;20554;-76
2023/01/16 11:06:28;;;;;;;3.85;1.05;;;;;;;6.23;91.63;97964.97;5226561;28;20029;-75
2023/01/16 11:09:05;;;;;;;4.03;0.68;;;;;;;5.99;92.01;97963.81;5215459;28;20035;-74
2023/01/16 11:20:16;;;;;;;2.78;0.70;;;;;;;6.03;91.19;97939.38;5229748;28;20086;-74
2023/01/16 11:23:09;;;;;;;7.43;0.52;;;;;;;6.00;92.00;97924.84;5235270;28;20109;-76
2023/01/16 11:25:39;;;;;;;3.78;0.60;;;;;;;5.97;91.10;97926.78;5227073;28;20035;-76
2023/01/16 11:28:16;;;;;;;3.15;0.60;;;;;;;6.06;92.30;97914.13;5228433;28;20117;-76
2023/01/16 11:30:49;;;;;;;6.93;0.73;;;;;;;6.07;90.53;97907.19;5235102;28;20398;-75
2023/01/16 11:33:24;;;;;;;3.47;0.70;;;;;;;6.08;90.53;97901.06;5235657;28;20036;-76
2023/01/16 11:35:57;;;;;;;2.25;0.60;;;;;;;6.09;92.66;97900.97;5230491;28;20394;-77
2023/01/16 11:38:32;;;;;;;2.53;0.70;;;;;;;6.12;91.08;97879.22;5230815;28;20470;-75
2023/01/16 11:41:06;;;;;;;2.30;0.65;;;;;;;6.30;88.96;97876.34;5233119;28;20020;-73
2023/01/16 11:46:32;;;;;;;5.53;0.77;;;;;;;6.30;87.69;97841.78;5227272;28;20043;-75
2023/01/16 11:49:14;;;;;;;2.83;0.63;;;;;;;6.35;89.18;97837.13;5230046;28;20534;-75
2023/01/16 11:51:51;;;;;;;3.28;0.75;;;;;;;6.32;88.69;97835.59;5230937;28;20029;-75
2023/01/16 11:54:28;;;;;;;2.08;0.60;;;;;;;6.22;88.67;97831.91;5225345;28;20029;-76
2023/01/16 11:57:15;;;;;;;3.42;0.90;;;;;;;6.34;89.60;97810.41;5230029;28;20028;-75
2023/01/16 12:00:03;;;;;;;4.38;0.70;;;;;;;6.07;90.21;97803.50;5234486;28;20081;-76
2023/01/16 12:02:55;;;;;;;3.92;0.90;;;;;;;5.95;91.68;97799.88;5230141;28;20031;-76
2023/01/16 12:05:54;;;;;;;4.30;1.10;;;;;;;6.04;92.43;97801.06;5227447;28;20081;-75
2023/01/16 12:08:49;;;;;;;4.05;0.70;;;;;;;6.17;92.50;97796.81;5204904;28;20089;-75
2023/01/16 12:11:50;;;;;;;4.00;0.70;;;;;;;6.18;92.74;97788.09;5225676;28;20044;-73
2023/01/16 12:14:44;;;;;;;3.75;0.70;;;;;;;6.24;92.14;97787.72;5224952;28;20028;-76
2023/01/16 12:17:35;;;;;;;3.13;0.68;;;;;;;6.43;90.45;97775.28;5224867;28;20561;-76
2023/01/16 12:20:08;;;;;;;1.98;0.50;;;;;;;6.48;90.10;97778.38;5227075;28;20025;-76
2023/01/16 12:22:41;;;;;;;4.15;0.75;;;;;;;6.56;89.34;97771.78;5233109;28;20033;-76
2023/01/16 12:25:32;;;;;;;3.28;0.60;;;;;;;6.60;88.71;97780.22;5230948;28;20021;-76
2023/01/16 12:28:28;;;;;;;1.85;0.65;;;;;;;6.66;87.07;97775.47;5223318;28;20460;-76
2023/01/16 12:31:15;;;;;;;3.88;0.70;;;;;;;6.71;87.29;97770.81;5229444;28;20029;-76
2023/01/16 12:33:50;;;;;;;3.17;0.50;;;;;;;6.68;86.53;97750.25;5226913;28;20025;-76
2023/01/16 12:36:45;;;;;;;2.55;0.70;;;;;;;6.70;87.05;97755.31;5226499;28;20406;-76
2023/01/16 12:39:26;;;;;;;3.25;0.90;;;;;;;6.70;87.73;97750.13;5223345;28;20040;-75
2023/01/16 12:45:09;;;;;;;2.42;0.60;;;;;;;6.68;85.28;97719.09;5231985;28;20036;-75
2023/01/16 12:47:46;;;;;;;2.50;0.50;;;;;;;6.62;86.79;97716.09;5227352;28;20070;-76
2023/01/16 12:50:19;;;;;;;5.90;2.08;;;;;;;6.60;85.21;97718.75;5224654;28;20299;-76
2023/01/16 12:53:20;;;;;;;1.63;0.43;;;;;;;6.57;88.20;97702.59;5228467;28;20036;-76
2023/01/16 12:56:33;;;;;;;1.77;0.73;;;;;;;6.50;86.60;97690.94;5206313;28;20075;-75
2023/01/16 12:59:18;;;;;;;4.97;0.70;;;;;;;6.45;85.64;97686.03;5222866;28;20100;-76
2023/01/16 13:01:56;;;;;;;2.90;0.50;;;;;;;6.45;86.60;97690.41;5229782;28;20469;-76
2023/01/16 13:04:37;;;;;;;1.73;0.52;;;;;;;6.42;86.93;97685.44;5224901;28;20039;-76
2023/01/16 13:07:14;;;;;;;2.50;0.55;;;;;;;6.43;85.37;97668.94;5220171;28;21142;-75
2023/01/16 13:13:21;;;;;;;3.22;0.60;;;;;;;6.58;86.76;97670.53;5230691;28;20451;-75
2023/01/16 13:16:33;;;;;;;2.92;0.70;;;;;;;6.59;86.14;97667.81;5223435;28;20048;-76
2023/01/16 13:19:15;;;;;;;2.28;0.73;;;;;;;6.66;85.90;97666.50;5134681;28;20322;-73
2023/01/16 13:22:14;;;;;;;7.22;0.70;;;;;;;6.62;86.76;97657.22;5204661;28;20257;-76
2023/01/16 13:25:17;;;;;;;3.15;0.55;;;;;;;6.61;84.47;97667.72;5230350;28;20085;-76
2023/01/16 13:27:55;;;;;;;2.20;0.50;;;;;;;6.68;86.18;97664.63;5232442;28;20250;-75
2023/01/16 13:30:25;;;;;;;2.63;0.60;;;;;;;6.68;85.66;97653.41;5225350;28;20067;-77
2023/01/16 13:32:56;;;;;;;2.50;0.63;;;;;;;6.68;86.17;97650.81;5209945;28;20064;-76
2023/01/16 13:35:36;;;;;;;3.53;0.60;;;;;;;6.66;86.56;97647.50;5230174;28;20032;-76
2023/01/16 13:38:36;;;;;;;4.18;0.75;;;;;;;6.72;88.65;97634.09;5228320;28;20032;-76